Hardin, Kentucky
Current Conditions -  °F | °C
As of 4:35 PM on Tuesday 21 Oct 2014 (Local Time) from KCEY Reporting Station
Clear Clear  
Wind Chill: 68°   Ceiling: Unl
Heat Index: 68°   Visibility: 10mi
Dew Point: 45°   Wind: 10mph
Humidity: 43%   Direction: 20°NNE
Pressure: 30.05"   Gusts: 16mph
Location:  36.76°N, 88.3°W
Report Text: KCEY 212135Z AUTO 02009G14KT 10SM CLR 20/07 A3005 RMK AO1
Loading
Personal Weather Stations






























Interactive Weather Map
Tropical Storm Tracking
New forecast layout! Learn more

10-Day Weather Forecast

Advertisements
Track Severe Weather on mobile